sensor_id;sensor_type;location;lat;lon;timestamp;P1;durP1;ratioP1;P2;durP2;ratioP2
64678;SDS011;51094;53.864;27.676;2024-02-04T00:00:00;1.20;;;1.20;;
64678;SDS011;51094;53.864;27.676;2024-02-04T00:02:29;1.13;;;1.02;;
64678;SDS011;51094;53.864;27.676;2024-02-04T00:05:10;1.60;;;1.50;;
64678;SDS011;51094;53.864;27.676;2024-02-04T00:07:37;1.60;;;1.50;;
64678;SDS011;51094;53.864;27.676;2024-02-04T00:10:04;1.48;;;1.40;;
64678;SDS011;51094;53.864;27.676;2024-02-04T00:12:39;1.55;;;1.45;;
64678;SDS011;51094;53.864;27.676;2024-02-04T00:15:06;1.85;;;1.75;;
64678;SDS011;51094;53.864;27.676;2024-02-04T00:17:34;1.23;;;1.13;;
64678;SDS011;51094;53.864;27.676;2024-02-04T00:20:06;1.40;;;1.30;;
64678;SDS011;51094;53.864;27.676;2024-02-04T00:22:37;1.02;;;0.90;;
64678;SDS011;51094;53.864;27.676;2024-02-04T00:25:04;1.10;;;1.00;;
64678;SDS011;51094;53.864;27.676;2024-02-04T00:27:32;1.40;;;1.30;;
64678;SDS011;51094;53.864;27.676;2024-02-04T00:29:59;1.33;;;1.23;;
64678;SDS011;51094;53.864;27.676;2024-02-04T00:34:59;1.17;;;1.00;;
64678;SDS011;51094;53.864;27.676;2024-02-04T00:37:26;1.27;;;1.10;;
64678;SDS011;51094;53.864;27.676;2024-02-04T00:39:53;1.30;;;1.10;;
64678;SDS011;51094;53.864;27.676;2024-02-04T00:42:20;1.20;;;1.10;;
64678;SDS011;51094;53.864;27.676;2024-02-04T00:44:47;1.13;;;1.02;;
64678;SDS011;51094;53.864;27.676;2024-02-04T00:47:14;1.25;;;1.10;;
64678;SDS011;51094;53.864;27.676;2024-02-04T00:49:42;1.52;;;1.40;;
64678;SDS011;51094;53.864;27.676;2024-02-04T00:52:09;1.17;;;1.08;;
64678;SDS011;51094;53.864;27.676;2024-02-04T00:54:36;1.20;;;1.00;;
64678;SDS011;51094;53.864;27.676;2024-02-04T00:57:03;1.20;;;1.10;;
64678;SDS011;51094;53.864;27.676;2024-02-04T00:59:33;0.95;;;0.88;;
64678;SDS011;51094;53.864;27.676;2024-02-04T01:02:03;1.13;;;1.02;;
64678;SDS011;51094;53.864;27.676;2024-02-04T01:04:31;0.80;;;0.80;;
64678;SDS011;51094;53.864;27.676;2024-02-04T01:06:58;1.10;;;1.00;;
64678;SDS011;51094;53.864;27.676;2024-02-04T01:09:28;1.10;;;1.10;;
64678;SDS011;51094;53.864;27.676;2024-02-04T01:11:56;1.20;;;1.10;;
64678;SDS011;51094;53.864;27.676;2024-02-04T01:14:23;1.00;;;1.00;;
64678;SDS011;51094;53.864;27.676;2024-02-04T01:16:50;1.25;;;1.15;;
64678;SDS011;51094;53.864;27.676;2024-02-04T01:19:18;0.90;;;0.90;;
64678;SDS011;51094;53.864;27.676;2024-02-04T01:21:45;1.13;;;1.02;;
64678;SDS011;51094;53.864;27.676;2024-02-04T01:24:12;1.45;;;1.33;;
64678;SDS011;51094;53.864;27.676;2024-02-04T01:26:39;1.13;;;1.00;;
64678;SDS011;51094;53.864;27.676;2024-02-04T01:29:06;1.13;;;1.05;;
64678;SDS011;51094;53.864;27.676;2024-02-04T01:31:36;1.17;;;1.00;;
64678;SDS011;51094;53.864;27.676;2024-02-04T01:36:33;1.08;;;1.08;;
64678;SDS011;51094;53.864;27.676;2024-02-04T01:39:00;1.15;;;1.05;;
64678;SDS011;51094;53.864;27.676;2024-02-04T01:41:27;0.90;;;0.90;;
64678;SDS011;51094;53.864;27.676;2024-02-04T01:43:54;1.02;;;0.93;;
64678;SDS011;51094;53.864;27.676;2024-02-04T01:46:21;0.88;;;0.85;;
64678;SDS011;51094;53.864;27.676;2024-02-04T01:48:49;1.15;;;1.08;;
64678;SDS011;51094;53.864;27.676;2024-02-04T01:51:17;1.00;;;1.00;;
64678;SDS011;51094;53.864;27.676;2024-02-04T01:53:46;0.90;;;0.90;;
64678;SDS011;51094;53.864;27.676;2024-02-04T01:56:15;1.20;;;1.10;;
64678;SDS011;51094;53.864;27.676;2024-02-04T01:58:43;1.10;;;1.00;;
64678;SDS011;51094;53.864;27.676;2024-02-04T02:01:12;1.02;;;0.93;;
64678;SDS011;51094;53.864;27.676;2024-02-04T02:03:39;1.15;;;1.05;;
64678;SDS011;51094;53.864;27.676;2024-02-04T02:06:06;0.93;;;0.93;;
64678;SDS011;51094;53.864;27.676;2024-02-04T02:08:34;0.95;;;0.93;;
64678;SDS011;51094;53.864;27.676;2024-02-04T02:11:25;1.20;;;0.90;;
64678;SDS011;51094;53.864;27.676;2024-02-04T02:14:04;0.85;;;0.85;;
64678;SDS011;51094;53.864;27.676;2024-02-04T02:16:35;1.10;;;1.00;;
64678;SDS011;51094;53.864;27.676;2024-02-04T02:19:05;0.88;;;0.88;;
64678;SDS011;51094;53.864;27.676;2024-02-04T02:21:52;1.23;;;1.13;;
64678;SDS011;51094;53.864;27.676;2024-02-04T02:24:38;1.00;;;0.90;;
64678;SDS011;51094;53.864;27.676;2024-02-04T02:27:07;1.02;;;1.00;;
64678;SDS011;51094;53.864;27.676;2024-02-04T02:29:34;1.13;;;1.02;;
64678;SDS011;51094;53.864;27.676;2024-02-04T02:32:02;1.10;;;1.00;;
64678;SDS011;51094;53.864;27.676;2024-02-04T02:34:30;0.93;;;0.93;;
64678;SDS011;51094;53.864;27.676;2024-02-04T02:42:32;1.15;;;1.05;;
64678;SDS011;51094;53.864;27.676;2024-02-04T02:45:00;1.20;;;1.10;;
64678;SDS011;51094;53.864;27.676;2024-02-04T02:47:28;1.23;;;1.13;;
64678;SDS011;51094;53.864;27.676;2024-02-04T02:52:27;1.10;;;1.10;;
64678;SDS011;51094;53.864;27.676;2024-02-04T02:54:53;1.10;;;1.00;;
64678;SDS011;51094;53.864;27.676;2024-02-04T02:57:20;0.73;;;0.70;;
64678;SDS011;51094;53.864;27.676;2024-02-04T02:59:53;1.10;;;1.00;;
64678;SDS011;51094;53.864;27.676;2024-02-04T03:02:20;0.93;;;0.93;;
64678;SDS011;51094;53.864;27.676;2024-02-04T03:04:50;1.15;;;1.00;;
64678;SDS011;51094;53.864;27.676;2024-02-04T03:07:17;1.27;;;1.17;;
64678;SDS011;51094;53.864;27.676;2024-02-04T03:09:44;0.70;;;0.70;;
64678;SDS011;51094;53.864;27.676;2024-02-04T03:12:13;1.10;;;1.00;;
64678;SDS011;51094;53.864;27.676;2024-02-04T03:14:40;1.30;;;1.20;;
64678;SDS011;51094;53.864;27.676;2024-02-04T03:17:06;0.98;;;0.98;;
64678;SDS011;51094;53.864;27.676;2024-02-04T03:19:36;1.25;;;1.15;;
64678;SDS011;51094;53.864;27.676;2024-02-04T03:22:03;0.80;;;0.80;;
64678;SDS011;51094;53.864;27.676;2024-02-04T03:24:31;0.90;;;0.90;;
64678;SDS011;51094;53.864;27.676;2024-02-04T03:26:58;0.93;;;0.93;;
64678;SDS011;51094;53.864;27.676;2024-02-04T03:29:25;0.80;;;0.80;;
64678;SDS011;51094;53.864;27.676;2024-02-04T03:31:52;0.80;;;0.80;;
64678;SDS011;51094;53.864;27.676;2024-02-04T03:34:24;1.00;;;0.90;;
64678;SDS011;51094;53.864;27.676;2024-02-04T03:36:52;1.30;;;1.20;;
64678;SDS011;51094;53.864;27.676;2024-02-04T03:39:20;1.10;;;0.90;;
64678;SDS011;51094;53.864;27.676;2024-02-04T03:41:47;1.02;;;0.93;;
64678;SDS011;51094;53.864;27.676;2024-02-04T03:44:17;0.93;;;0.88;;
64678;SDS011;51094;53.864;27.676;2024-02-04T03:46:47;0.80;;;0.80;;
64678;SDS011;51094;53.864;27.676;2024-02-04T03:49:15;0.80;;;0.80;;
64678;SDS011;51094;53.864;27.676;2024-02-04T03:51:43;0.90;;;0.90;;
64678;SDS011;51094;53.864;27.676;2024-02-04T03:54:10;0.80;;;0.80;;
64678;SDS011;51094;53.864;27.676;2024-02-04T03:56:37;1.00;;;1.00;;
64678;SDS011;51094;53.864;27.676;2024-02-04T03:59:05;0.90;;;0.90;;
64678;SDS011;51094;53.864;27.676;2024-02-04T04:01:33;0.75;;;0.75;;
64678;SDS011;51094;53.864;27.676;2024-02-04T04:04:02;0.80;;;0.80;;
64678;SDS011;51094;53.864;27.676;2024-02-04T04:06:29;0.95;;;0.90;;
64678;SDS011;51094;53.864;27.676;2024-02-04T04:08:56;0.75;;;0.73;;
64678;SDS011;51094;53.864;27.676;2024-02-04T04:11:25;1.10;;;1.00;;
64678;SDS011;51094;53.864;27.676;2024-02-04T04:13:52;0.80;;;0.80;;
64678;SDS011;51094;53.864;27.676;2024-02-04T04:16:22;0.80;;;0.80;;
64678;SDS011;51094;53.864;27.676;2024-02-04T04:18:49;1.00;;;0.90;;
64678;SDS011;51094;53.864;27.676;2024-02-04T04:21:19;0.80;;;0.77;;
64678;SDS011;51094;53.864;27.676;2024-02-04T04:23:48;0.70;;;0.70;;
64678;SDS011;51094;53.864;27.676;2024-02-04T04:26:15;0.88;;;0.88;;
64678;SDS011;51094;53.864;27.676;2024-02-04T04:28:42;1.05;;;0.90;;
64678;SDS011;51094;53.864;27.676;2024-02-04T04:31:09;0.95;;;0.90;;
64678;SDS011;51094;53.864;27.676;2024-02-04T04:33:36;0.80;;;0.80;;
64678;SDS011;51094;53.864;27.676;2024-02-04T04:36:03;0.82;;;0.80;;
64678;SDS011;51094;53.864;27.676;2024-02-04T04:38:30;0.70;;;0.70;;
64678;SDS011;51094;53.864;27.676;2024-02-04T04:41:00;0.80;;;0.80;;
64678;SDS011;51094;53.864;27.676;2024-02-04T04:43:27;0.80;;;0.80;;
64678;SDS011;51094;53.864;27.676;2024-02-04T04:45:54;0.93;;;0.77;;
64678;SDS011;51094;53.864;27.676;2024-02-04T04:48:21;1.00;;;0.98;;
64678;SDS011;51094;53.864;27.676;2024-02-04T04:50:51;0.77;;;0.77;;
64678;SDS011;51094;53.864;27.676;2024-02-04T04:53:18;0.85;;;0.85;;
64678;SDS011;51094;53.864;27.676;2024-02-04T04:55:45;0.77;;;0.77;;
64678;SDS011;51094;53.864;27.676;2024-02-04T04:58:14;0.70;;;0.68;;
64678;SDS011;51094;53.864;27.676;2024-02-04T05:00:44;0.80;;;0.80;;
64678;SDS011;51094;53.864;27.676;2024-02-04T05:03:11;0.70;;;0.70;;
64678;SDS011;51094;53.864;27.676;2024-02-04T05:05:38;0.77;;;0.75;;
64678;SDS011;51094;53.864;27.676;2024-02-04T05:08:06;1.20;;;1.10;;
64678;SDS011;51094;53.864;27.676;2024-02-04T05:10:33;1.33;;;1.23;;
64678;SDS011;51094;53.864;27.676;2024-02-04T05:13:00;0.88;;;0.88;;
64678;SDS011;51094;53.864;27.676;2024-02-04T05:15:27;0.85;;;0.82;;
64678;SDS011;51094;53.864;27.676;2024-02-04T05:17:56;1.05;;;1.05;;
64678;SDS011;51094;53.864;27.676;2024-02-04T05:20:23;0.90;;;0.75;;
64678;SDS011;51094;53.864;27.676;2024-02-04T05:22:50;0.90;;;0.90;;
64678;SDS011;51094;53.864;27.676;2024-02-04T05:25:17;0.98;;;0.98;;
64678;SDS011;51094;53.864;27.676;2024-02-04T05:27:44;0.68;;;0.65;;
64678;SDS011;51094;53.864;27.676;2024-02-04T05:30:12;0.82;;;0.82;;
64678;SDS011;51094;53.864;27.676;2024-02-04T05:32:39;0.80;;;0.80;;
64678;SDS011;51094;53.864;27.676;2024-02-04T05:35:09;0.70;;;0.70;;
64678;SDS011;51094;53.864;27.676;2024-02-04T05:37:37;0.60;;;0.60;;
64678;SDS011;51094;53.864;27.676;2024-02-04T05:40:04;0.70;;;0.70;;
64678;SDS011;51094;53.864;27.676;2024-02-04T05:42:32;0.60;;;0.60;;
64678;SDS011;51094;53.864;27.676;2024-02-04T05:45:01;0.95;;;0.90;;
64678;SDS011;51094;53.864;27.676;2024-02-04T05:47:28;0.65;;;0.65;;
64678;SDS011;51094;53.864;27.676;2024-02-04T05:49:55;1.27;;;1.25;;
64678;SDS011;51094;53.864;27.676;2024-02-04T05:52:22;1.10;;;1.08;;
64678;SDS011;51094;53.864;27.676;2024-02-04T05:54:58;0.93;;;0.80;;
64678;SDS011;51094;53.864;27.676;2024-02-04T05:57:30;0.73;;;0.73;;
64678;SDS011;51094;53.864;27.676;2024-02-04T05:59:57;0.70;;;0.70;;
64678;SDS011;51094;53.864;27.676;2024-02-04T06:02:27;0.60;;;0.60;;
64678;SDS011;51094;53.864;27.676;2024-02-04T06:04:54;0.70;;;0.70;;
64678;SDS011;51094;53.864;27.676;2024-02-04T06:07:21;0.93;;;0.93;;
64678;SDS011;51094;53.864;27.676;2024-02-04T06:09:48;0.63;;;0.63;;
64678;SDS011;51094;53.864;27.676;2024-02-04T06:12:15;0.77;;;0.73;;
64678;SDS011;51094;53.864;27.676;2024-02-04T06:14:41;0.70;;;0.70;;
64678;SDS011;51094;53.864;27.676;2024-02-04T06:17:08;1.10;;;1.00;;
64678;SDS011;51094;53.864;27.676;2024-02-04T06:19:38;0.75;;;0.75;;
64678;SDS011;51094;53.864;27.676;2024-02-04T06:22:05;0.70;;;0.70;;
64678;SDS011;51094;53.864;27.676;2024-02-04T06:24:33;0.80;;;0.80;;
64678;SDS011;51094;53.864;27.676;2024-02-04T06:27:00;0.93;;;0.93;;
64678;SDS011;51094;53.864;27.676;2024-02-04T06:29:29;0.70;;;0.70;;
64678;SDS011;51094;53.864;27.676;2024-02-04T06:31:56;0.75;;;0.75;;
64678;SDS011;51094;53.864;27.676;2024-02-04T06:34:23;0.90;;;0.90;;
64678;SDS011;51094;53.864;27.676;2024-02-04T06:36:51;0.70;;;0.70;;
64678;SDS011;51094;53.864;27.676;2024-02-04T06:39:18;0.70;;;0.70;;
64678;SDS011;51094;53.864;27.676;2024-02-04T06:41:45;0.77;;;0.77;;
64678;SDS011;51094;53.864;27.676;2024-02-04T06:44:14;0.70;;;0.70;;
64678;SDS011;51094;53.864;27.676;2024-02-04T06:46:41;0.70;;;0.65;;
64678;SDS011;51094;53.864;27.676;2024-02-04T06:49:08;0.70;;;0.70;;
64678;SDS011;51094;53.864;27.676;2024-02-04T06:51:37;0.90;;;0.75;;
64678;SDS011;51094;53.864;27.676;2024-02-04T06:54:08;0.85;;;0.85;;
64678;SDS011;51094;53.864;27.676;2024-02-04T06:56:36;0.70;;;0.70;;
64678;SDS011;51094;53.864;27.676;2024-02-04T06:59:03;1.15;;;1.13;;
64678;SDS011;51094;53.864;27.676;2024-02-04T07:01:32;0.77;;;0.77;;
64678;SDS011;51094;53.864;27.676;2024-02-04T07:03:59;0.70;;;0.70;;
64678;SDS011;51094;53.864;27.676;2024-02-04T07:06:26;0.88;;;0.60;;
64678;SDS011;51094;53.864;27.676;2024-02-04T07:08:53;0.73;;;0.73;;
64678;SDS011;51094;53.864;27.676;2024-02-04T07:11:20;0.77;;;0.70;;
64678;SDS011;51094;53.864;27.676;2024-02-04T07:13:47;0.55;;;0.55;;
64678;SDS011;51094;53.864;27.676;2024-02-04T07:16:14;0.80;;;0.80;;
64678;SDS011;51094;53.864;27.676;2024-02-04T07:18:43;0.60;;;0.60;;
64678;SDS011;51094;53.864;27.676;2024-02-04T07:21:15;0.82;;;0.82;;
64678;SDS011;51094;53.864;27.676;2024-02-04T07:23:42;0.70;;;0.70;;
64678;SDS011;51094;53.864;27.676;2024-02-04T07:26:09;0.73;;;0.73;;
64678;SDS011;51094;53.864;27.676;2024-02-04T07:28:38;0.70;;;0.70;;
64678;SDS011;51094;53.864;27.676;2024-02-04T07:31:08;0.93;;;0.90;;
64678;SDS011;51094;53.864;27.676;2024-02-04T07:33:35;0.57;;;0.57;;
64678;SDS011;51094;53.864;27.676;2024-02-04T07:36:06;0.80;;;0.80;;
64678;SDS011;51094;53.864;27.676;2024-02-04T07:38:42;0.60;;;0.55;;
64678;SDS011;51094;53.864;27.676;2024-02-04T07:41:09;0.93;;;0.93;;
64678;SDS011;51094;53.864;27.676;2024-02-04T07:43:40;0.80;;;0.80;;
64678;SDS011;51094;53.864;27.676;2024-02-04T07:46:07;0.80;;;0.80;;
64678;SDS011;51094;53.864;27.676;2024-02-04T07:48:35;0.70;;;0.70;;
64678;SDS011;51094;53.864;27.676;2024-02-04T07:51:04;0.60;;;0.60;;
64678;SDS011;51094;53.864;27.676;2024-02-04T07:53:35;0.82;;;0.82;;
64678;SDS011;51094;53.864;27.676;2024-02-04T07:56:03;0.93;;;0.93;;
64678;SDS011;51094;53.864;27.676;2024-02-04T07:58:32;0.90;;;0.90;;
64678;SDS011;51094;53.864;27.676;2024-02-04T08:00:59;0.70;;;0.70;;
64678;SDS011;51094;53.864;27.676;2024-02-04T08:03:27;0.82;;;0.82;;
64678;SDS011;51094;53.864;27.676;2024-02-04T08:05:56;0.90;;;0.83;;
64678;SDS011;51094;53.864;27.676;2024-02-04T08:08:23;1.08;;;1.08;;
64678;SDS011;51094;53.864;27.676;2024-02-04T08:10:50;0.77;;;0.77;;
64678;SDS011;51094;53.864;27.676;2024-02-04T08:13:17;1.00;;;1.00;;
64678;SDS011;51094;53.864;27.676;2024-02-04T08:15:44;0.90;;;0.90;;
64678;SDS011;51094;53.864;27.676;2024-02-04T08:18:11;1.10;;;1.00;;
64678;SDS011;51094;53.864;27.676;2024-02-04T08:20:38;0.68;;;0.68;;
64678;SDS011;51094;53.864;27.676;2024-02-04T08:23:05;1.05;;;0.75;;
64678;SDS011;51094;53.864;27.676;2024-02-04T08:25:33;1.10;;;1.10;;
64678;SDS011;51094;53.864;27.676;2024-02-04T08:27:59;0.85;;;0.85;;
64678;SDS011;51094;53.864;27.676;2024-02-04T08:30:26;0.70;;;0.70;;
64678;SDS011;51094;53.864;27.676;2024-02-04T08:32:53;0.70;;;0.70;;
64678;SDS011;51094;53.864;27.676;2024-02-04T08:35:21;0.80;;;0.80;;
64678;SDS011;51094;53.864;27.676;2024-02-04T08:37:47;0.80;;;0.80;;
64678;SDS011;51094;53.864;27.676;2024-02-04T08:40:14;0.73;;;0.70;;
64678;SDS011;51094;53.864;27.676;2024-02-04T08:42:42;0.80;;;0.80;;
64678;SDS011;51094;53.864;27.676;2024-02-04T08:45:09;0.70;;;0.70;;
64678;SDS011;51094;53.864;27.676;2024-02-04T08:47:36;0.80;;;0.80;;
64678;SDS011;51094;53.864;27.676;2024-02-04T08:50:03;0.70;;;0.70;;
64678;SDS011;51094;53.864;27.676;2024-02-04T08:52:31;0.60;;;0.60;;
64678;SDS011;51094;53.864;27.676;2024-02-04T08:54:58;0.70;;;0.70;;
64678;SDS011;51094;53.864;27.676;2024-02-04T08:57:26;1.10;;;1.00;;
64678;SDS011;51094;53.864;27.676;2024-02-04T08:59:53;0.73;;;0.73;;
64678;SDS011;51094;53.864;27.676;2024-02-04T09:02:20;0.60;;;0.60;;
64678;SDS011;51094;53.864;27.676;2024-02-04T09:04:47;0.80;;;0.80;;
64678;SDS011;51094;53.864;27.676;2024-02-04T09:07:15;0.70;;;0.63;;
64678;SDS011;51094;53.864;27.676;2024-02-04T09:09:42;0.80;;;0.80;;
64678;SDS011;51094;53.864;27.676;2024-02-04T09:12:09;0.93;;;0.80;;
64678;SDS011;51094;53.864;27.676;2024-02-04T09:14:36;0.90;;;0.90;;
64678;SDS011;51094;53.864;27.676;2024-02-04T09:17:04;0.80;;;0.80;;
64678;SDS011;51094;53.864;27.676;2024-02-04T09:19:31;0.70;;;0.70;;
64678;SDS011;51094;53.864;27.676;2024-02-04T09:21:59;0.60;;;0.60;;
64678;SDS011;51094;53.864;27.676;2024-02-04T09:24:28;0.88;;;0.80;;
64678;SDS011;51094;53.864;27.676;2024-02-04T09:26:56;0.63;;;0.52;;
64678;SDS011;51094;53.864;27.676;2024-02-04T09:29:23;0.68;;;0.68;;
64678;SDS011;51094;53.864;27.676;2024-02-04T09:31:50;1.00;;;0.90;;
64678;SDS011;51094;53.864;27.676;2024-02-04T09:34:18;0.65;;;0.65;;
64678;SDS011;51094;53.864;27.676;2024-02-04T09:36:49;0.73;;;0.73;;
64678;SDS011;51094;53.864;27.676;2024-02-04T09:39:17;0.70;;;0.70;;
64678;SDS011;51094;53.864;27.676;2024-02-04T09:41:44;0.55;;;0.55;;
64678;SDS011;51094;53.864;27.676;2024-02-04T09:44:11;0.70;;;0.70;;
64678;SDS011;51094;53.864;27.676;2024-02-04T09:46:42;0.77;;;0.77;;
64678;SDS011;51094;53.864;27.676;2024-02-04T09:49:09;1.00;;;1.00;;
64678;SDS011;51094;53.864;27.676;2024-02-04T09:51:40;0.85;;;0.85;;
64678;SDS011;51094;53.864;27.676;2024-02-04T09:54:09;0.75;;;0.75;;
64678;SDS011;51094;53.864;27.676;2024-02-04T09:56:38;0.80;;;0.80;;
64678;SDS011;51094;53.864;27.676;2024-02-04T09:59:07;0.77;;;0.77;;
64678;SDS011;51094;53.864;27.676;2024-02-04T10:01:34;0.88;;;0.80;;
64678;SDS011;51094;53.864;27.676;2024-02-04T10:04:02;0.63;;;0.63;;
64678;SDS011;51094;53.864;27.676;2024-02-04T10:06:31;0.88;;;0.88;;
64678;SDS011;51094;53.864;27.676;2024-02-04T10:08:58;0.70;;;0.70;;
64678;SDS011;51094;53.864;27.676;2024-02-04T10:11:26;0.80;;;0.80;;
64678;SDS011;51094;53.864;27.676;2024-02-04T10:13:54;0.80;;;0.80;;
64678;SDS011;51094;53.864;27.676;2024-02-04T10:16:21;0.60;;;0.60;;
64678;SDS011;51094;53.864;27.676;2024-02-04T10:18:48;0.85;;;0.85;;
64678;SDS011;51094;53.864;27.676;2024-02-04T10:21:16;0.77;;;0.77;;
64678;SDS011;51094;53.864;27.676;2024-02-04T10:23:47;0.70;;;0.70;;
64678;SDS011;51094;53.864;27.676;2024-02-04T10:26:15;0.70;;;0.70;;
64678;SDS011;51094;53.864;27.676;2024-02-04T10:28:44;0.90;;;0.90;;
64678;SDS011;51094;53.864;27.676;2024-02-04T10:31:11;0.93;;;0.93;;
64678;SDS011;51094;53.864;27.676;2024-02-04T10:33:38;0.70;;;0.70;;
64678;SDS011;51094;53.864;27.676;2024-02-04T10:36:06;0.70;;;0.70;;
64678;SDS011;51094;53.864;27.676;2024-02-04T10:38:37;0.52;;;0.52;;
64678;SDS011;51094;53.864;27.676;2024-02-04T10:41:04;0.80;;;0.80;;
64678;SDS011;51094;53.864;27.676;2024-02-04T10:43:33;0.90;;;0.90;;
64678;SDS011;51094;53.864;27.676;2024-02-04T10:46:03;0.77;;;0.77;;
64678;SDS011;51094;53.864;27.676;2024-02-04T10:48:34;0.88;;;0.88;;
64678;SDS011;51094;53.864;27.676;2024-02-04T10:51:12;0.70;;;0.70;;
64678;SDS011;51094;53.864;27.676;2024-02-04T10:53:42;1.00;;;1.00;;
64678;SDS011;51094;53.864;27.676;2024-02-04T10:56:58;0.60;;;0.60;;
64678;SDS011;51094;53.864;27.676;2024-02-04T10:59:11;0.90;;;0.90;;
64678;SDS011;51094;53.864;27.676;2024-02-04T11:01:39;0.80;;;0.80;;
64678;SDS011;51094;53.864;27.676;2024-02-04T11:04:08;0.82;;;0.82;;
64678;SDS011;51094;53.864;27.676;2024-02-04T11:06:42;0.60;;;0.60;;
64678;SDS011;51094;53.864;27.676;2024-02-04T11:09:13;0.80;;;0.80;;
64678;SDS011;51094;53.864;27.676;2024-02-04T11:11:43;0.80;;;0.80;;
64678;SDS011;51094;53.864;27.676;2024-02-04T11:14:12;0.68;;;0.68;;
64678;SDS011;51094;53.864;27.676;2024-02-04T11:17:03;0.80;;;0.80;;
64678;SDS011;51094;53.864;27.676;2024-02-04T11:20:00;0.60;;;0.60;;
64678;SDS011;51094;53.864;27.676;2024-02-04T11:25:56;0.68;;;0.68;;
64678;SDS011;51094;53.864;27.676;2024-02-04T11:28:25;0.73;;;0.73;;
64678;SDS011;51094;53.864;27.676;2024-02-04T11:30:54;0.60;;;0.60;;
64678;SDS011;51094;53.864;27.676;2024-02-04T11:33:22;0.70;;;0.70;;
64678;SDS011;51094;53.864;27.676;2024-02-04T11:36:00;0.80;;;0.80;;
64678;SDS011;51094;53.864;27.676;2024-02-04T11:38:36;0.98;;;0.98;;
64678;SDS011;51094;53.864;27.676;2024-02-04T11:41:04;0.70;;;0.70;;
64678;SDS011;51094;53.864;27.676;2024-02-04T11:43:32;0.60;;;0.60;;
64678;SDS011;51094;53.864;27.676;2024-02-04T11:46:02;0.68;;;0.68;;
64678;SDS011;51094;53.864;27.676;2024-02-04T11:48:30;0.70;;;0.70;;
64678;SDS011;51094;53.864;27.676;2024-02-04T11:51:00;0.52;;;0.52;;
64678;SDS011;51094;53.864;27.676;2024-02-04T11:53:28;0.80;;;0.80;;
64678;SDS011;51094;53.864;27.676;2024-02-04T11:56:02;0.70;;;0.70;;
64678;SDS011;51094;53.864;27.676;2024-02-04T11:58:30;0.90;;;0.90;;
64678;SDS011;51094;53.864;27.676;2024-02-04T12:00:58;0.90;;;0.90;;
64678;SDS011;51094;53.864;27.676;2024-02-04T12:03:31;0.68;;;0.68;;
64678;SDS011;51094;53.864;27.676;2024-02-04T12:05:59;0.60;;;0.60;;
64678;SDS011;51094;53.864;27.676;2024-02-04T12:08:28;0.70;;;0.70;;
64678;SDS011;51094;53.864;27.676;2024-02-04T12:10:56;0.50;;;0.50;;
64678;SDS011;51094;53.864;27.676;2024-02-04T12:13:24;0.60;;;0.60;;
64678;SDS011;51094;53.864;27.676;2024-02-04T12:15:51;0.77;;;0.77;;
64678;SDS011;51094;53.864;27.676;2024-02-04T12:18:18;0.60;;;0.60;;
64678;SDS011;51094;53.864;27.676;2024-02-04T12:20:47;0.52;;;0.52;;
64678;SDS011;51094;53.864;27.676;2024-02-04T12:23:17;0.70;;;0.70;;
64678;SDS011;51094;53.864;27.676;2024-02-04T12:25:50;0.50;;;0.50;;
64678;SDS011;51094;53.864;27.676;2024-02-04T12:28:17;0.80;;;0.80;;
64678;SDS011;51094;53.864;27.676;2024-02-04T12:30:52;0.88;;;0.88;;
64678;SDS011;51094;53.864;27.676;2024-02-04T12:33:25;0.50;;;0.50;;
64678;SDS011;51094;53.864;27.676;2024-02-04T12:35:52;0.50;;;0.50;;
64678;SDS011;51094;53.864;27.676;2024-02-04T12:38:22;0.57;;;0.57;;
64678;SDS011;51094;53.864;27.676;2024-02-04T12:40:49;0.60;;;0.60;;
64678;SDS011;51094;53.864;27.676;2024-02-04T12:43:17;0.60;;;0.60;;
64678;SDS011;51094;53.864;27.676;2024-02-04T12:45:45;0.55;;;0.55;;
64678;SDS011;51094;53.864;27.676;2024-02-04T12:48:14;0.40;;;0.40;;
64678;SDS011;51094;53.864;27.676;2024-02-04T12:50:43;0.50;;;0.50;;
64678;SDS011;51094;53.864;27.676;2024-02-04T12:53:10;0.50;;;0.50;;
64678;SDS011;51094;53.864;27.676;2024-02-04T12:55:42;0.40;;;0.40;;
64678;SDS011;51094;53.864;27.676;2024-02-04T12:58:12;0.40;;;0.40;;
64678;SDS011;51094;53.864;27.676;2024-02-04T13:00:41;0.40;;;0.40;;
64678;SDS011;51094;53.864;27.676;2024-02-04T13:03:09;0.47;;;0.47;;
64678;SDS011;51094;53.864;27.676;2024-02-04T13:05:37;0.40;;;0.40;;
64678;SDS011;51094;53.864;27.676;2024-02-04T13:08:04;0.40;;;0.40;;
64678;SDS011;51094;53.864;27.676;2024-02-04T13:10:33;0.30;;;0.30;;
64678;SDS011;51094;53.864;27.676;2024-02-04T13:13:02;0.40;;;0.40;;
64678;SDS011;51094;53.864;27.676;2024-02-04T13:15:32;0.47;;;0.47;;
64678;SDS011;51094;53.864;27.676;2024-02-04T13:18:06;0.40;;;0.40;;
64678;SDS011;51094;53.864;27.676;2024-02-04T13:20:35;0.30;;;0.30;;
64678;SDS011;51094;53.864;27.676;2024-02-04T13:23:02;0.40;;;0.40;;
64678;SDS011;51094;53.864;27.676;2024-02-04T13:28:00;0.40;;;0.40;;
64678;SDS011;51094;53.864;27.676;2024-02-04T13:30:27;0.40;;;0.40;;
64678;SDS011;51094;53.864;27.676;2024-02-04T13:32:55;0.38;;;0.38;;
64678;SDS011;51094;53.864;27.676;2024-02-04T13:35:23;0.40;;;0.40;;
64678;SDS011;51094;53.864;27.676;2024-02-04T13:37:51;0.40;;;0.40;;
64678;SDS011;51094;53.864;27.676;2024-02-04T13:40:19;0.30;;;0.30;;
64678;SDS011;51094;53.864;27.676;2024-02-04T13:42:47;0.20;;;0.20;;
64678;SDS011;51094;53.864;27.676;2024-02-04T13:45:15;0.35;;;0.35;;
64678;SDS011;51094;53.864;27.676;2024-02-04T13:47:46;0.30;;;0.30;;
64678;SDS011;51094;53.864;27.676;2024-02-04T13:50:12;0.30;;;0.30;;
64678;SDS011;51094;53.864;27.676;2024-02-04T13:52:40;0.30;;;0.30;;
64678;SDS011;51094;53.864;27.676;2024-02-04T13:55:07;0.50;;;0.50;;
64678;SDS011;51094;53.864;27.676;2024-02-04T13:57:35;0.40;;;0.40;;
64678;SDS011;51094;53.864;27.676;2024-02-04T14:00:03;0.47;;;0.47;;
64678;SDS011;51094;53.864;27.676;2024-02-04T14:02:32;0.30;;;0.30;;
64678;SDS011;51094;53.864;27.676;2024-02-04T14:04:59;0.30;;;0.30;;
64678;SDS011;51094;53.864;27.676;2024-02-04T14:07:27;0.20;;;0.20;;
64678;SDS011;51094;53.864;27.676;2024-02-04T14:09:54;0.30;;;0.30;;
64678;SDS011;51094;53.864;27.676;2024-02-04T14:12:22;0.30;;;0.20;;
64678;SDS011;51094;53.864;27.676;2024-02-04T14:14:50;0.25;;;0.25;;
64678;SDS011;51094;53.864;27.676;2024-02-04T14:17:17;0.40;;;0.40;;
64678;SDS011;51094;53.864;27.676;2024-02-04T14:19:44;0.30;;;0.30;;
64678;SDS011;51094;53.864;27.676;2024-02-04T14:22:15;0.30;;;0.30;;
64678;SDS011;51094;53.864;27.676;2024-02-04T14:24:46;0.40;;;0.40;;
64678;SDS011;51094;53.864;27.676;2024-02-04T14:27:13;0.32;;;0.32;;
64678;SDS011;51094;53.864;27.676;2024-02-04T14:29:41;0.30;;;0.30;;
64678;SDS011;51094;53.864;27.676;2024-02-04T14:32:08;0.40;;;0.40;;
64678;SDS011;51094;53.864;27.676;2024-02-04T14:34:35;0.47;;;0.47;;
64678;SDS011;51094;53.864;27.676;2024-02-04T14:37:03;0.63;;;0.63;;
64678;SDS011;51094;53.864;27.676;2024-02-04T14:39:30;0.40;;;0.40;;
64678;SDS011;51094;53.864;27.676;2024-02-04T14:42:00;0.47;;;0.47;;
64678;SDS011;51094;53.864;27.676;2024-02-04T14:44:27;0.50;;;0.50;;
64678;SDS011;51094;53.864;27.676;2024-02-04T14:46:55;0.40;;;0.40;;
64678;SDS011;51094;53.864;27.676;2024-02-04T14:49:23;0.50;;;0.50;;
64678;SDS011;51094;53.864;27.676;2024-02-04T14:51:50;0.50;;;0.50;;
64678;SDS011;51094;53.864;27.676;2024-02-04T14:54:17;0.40;;;0.40;;
64678;SDS011;51094;53.864;27.676;2024-02-04T14:56:44;0.50;;;0.50;;
64678;SDS011;51094;53.864;27.676;2024-02-04T14:59:13;0.40;;;0.40;;